Wind EuroAirport

Messzeit Windrichtung Windgeschwindigkeit [Knoten] Rückenwind Nordpiste [Knoten] METAR
2017-08-21 17:00 NO 40°
(350°–130°)
3 0–3 LFSB 211500Z 04003KT 350V130 9999 FEW046 BKN093 23/09 Q1022 NOSIG
2017-08-21 16:30 NW 310°
(260°–20°)
3 1–3 LFSB 211430Z 31003KT 260V020 9999 FEW046 BKN093 23/08 Q1022 NOSIG
2017-08-21 16:00 NW 330°
(300°–10°)
4 3–4 LFSB 211400Z 33004KT 300V010 9999 FEW046 BKN093 22/09 Q1023 NOSIG
2017-08-21 15:30 - 3 - LFSB 211330Z VRB03KT 9999 FEW046 22/09 Q1023 NOSIG
2017-08-21 15:00 S 200°
(120°–290°)
4 0–3 LFSB 211300Z 20004KT 120V290 9999 FEW046 23/09 Q1023 NOSIG
2017-08-21 14:30 S 170°
(140°–220°)
4 - LFSB 211230Z 17004KT 140V220 9999 FEW046 21/10 Q1023 NOSIG
2017-08-21 14:00 - 2 - LFSB 211200Z VRB02KT CAVOK 21/09 Q1024 NOSIG
2017-08-21 13:30 - 3 - LFSB 211130Z VRB03KT CAVOK 21/11 Q1024 NOSIG
2017-08-21 13:00 O 80°
(20°–130°)
4 0–3 LFSB 211100Z 08004KT 020V130 CAVOK 20/10 Q1024 NOSIG
2017-08-21 12:30 - 3 - LFSB 211030Z VRB03KT CAVOK 19/10 Q1024 NOSIG
2017-08-21 12:00 - 2 - LFSB 211000Z VRB02KT CAVOK 19/11 Q1024 NOSIG
2017-08-21 11:30 - 2 - LFSB 210930Z VRB02KT CAVOK 17/11 Q1024 NOSIG
2017-08-21 11:00 - 1 - LFSB 210900Z VRB01KT CAVOK 17/11 Q1025 NOSIG
2017-08-21 10:30 - 2 - LFSB 210830Z VRB02KT 9999 FEW050 BKN083 16/11 Q1025 NOSIG
2017-08-21 10:00 - 2 - LFSB 210800Z VRB02KT CAVOK 15/11 Q1025 NOSIG
2017-08-21 09:30 - 2 - LFSB 210730Z VRB02KT CAVOK 14/11 Q1025 NOSIG
2017-08-21 09:00 NW 330° 4 4 LFSB 210700Z 33004KT CAVOK 13/11 Q1025 NOSIG
2017-08-21 08:30 - 2 - LFSB 210630Z VRB02KT CAVOK 13/11 Q1024 NOSIG
2017-08-21 08:00 - 0 - LFSB 210600Z 00000KT CAVOK 12/10 Q1024 NOSIG
2017-08-21 07:30 W 280° 2 1 LFSB 210530Z 28002KT CAVOK 11/11 Q1024 NOSIG
2017-08-21 07:00 NW 310° 2 2 LFSB 210500Z 31002KT CAVOK 11/10 Q1024 NOSIG
2017-08-21 06:30 NW 310° 3 3 LFSB 210430Z 31003KT CAVOK 11/09 Q1024 NOSIG
2017-08-21 06:00 S 170° 2 - LFSB 210400Z 17002KT CAVOK 11/10 Q1024 NOSIG
2017-08-21 05:30 W 270° 1 - LFSB 210330Z 27001KT CAVOK 11/10 Q1024 NOSIG
2017-08-21 05:00 - 0 - LFSB 210300Z 00000KT CAVOK 10/09 Q1025 NOSIG
2017-08-21 04:30 SW 220° 2 - LFSB 210230Z 22002KT CAVOK 10/10 Q1025 NOSIG
2017-08-21 04:00 - 0 - LFSB 210200Z AUTO 00000KT CAVOK 10/09 Q1025 NOSIG
2017-08-21 03:30 NW 300° 3 2 LFSB 210130Z AUTO 30003KT CAVOK 09/08 Q1025 NOSIG
2017-08-21 03:00 - 0 - LFSB 210100Z AUTO 00000KT CAVOK 10/08 Q1025 NOSIG
2017-08-21 02:30 - 2 - LFSB 210030Z AUTO VRB02KT CAVOK 10/08 Q1025 NOSIG
2017-08-21 02:00 - 1 - LFSB 210000Z AUTO VRB01KT CAVOK 12/09 Q1025 NOSIG
2017-08-21 01:30 NW 320° 4 4 LFSB 202330Z AUTO 32004KT CAVOK 12/09 Q1025 NOSIG
2017-08-21 01:00 NW 300° 3 2 LFSB 202300Z AUTO 30003KT CAVOK 12/09 Q1025 NOSIG
2017-08-21 00:30 W 290° 5 3 LFSB 202230Z AUTO 29005KT CAVOK 13/09 Q1025 NOSIG
2017-08-21 00:00 NW 300° 6 5 LFSB 202200Z 30006KT CAVOK 13/10 Q1025 NOSIG
2017-08-20 23:30 NW 310° 6 5 LFSB 202130Z 31006KT CAVOK 14/10 Q1025 NOSIG
2017-08-20 23:00 NW 310° 7 6 LFSB 202100Z 31007KT CAVOK 15/10 Q1025 NOSIG
2017-08-20 22:30 NW 310° 6 5 LFSB 202030Z 31006KT CAVOK 15/11 Q1025 NOSIG
2017-08-20 22:00 NW 320° 6 6 LFSB 202000Z 32006KT CAVOK 16/11 Q1024 NOSIG
2017-08-20 21:30 NW 300°
(270°–330°)
4 1–4 LFSB 201930Z 30004KT 270V330 CAVOK 18/08 Q1024 NOSIG
2017-08-20 21:00 W 290° 5 3 LFSB 201900Z 29005KT CAVOK 17/10 Q1024 NOSIG
2017-08-20 20:30 W 290° 7 4 LFSB 201830Z 29007KT CAVOK 19/08 Q1024 NOSIG
2017-08-20 20:00 W 270° 7 2 LFSB 201800Z 27007KT CAVOK 21/08 Q1024 NOSIG
2017-08-20 19:30 W 260° 7 1 LFSB 201730Z 26007KT CAVOK 22/08 Q1024 NOSIG
2017-08-20 19:00 W 250° 7 - LFSB 201700Z 25007KT CAVOK 22/08 Q1023 NOSIG
2017-08-20 18:30 W 270°
(240°–310°)
7 0–6 LFSB 201630Z 27007KT 240V310 CAVOK 23/08 Q1024 NOSIG
2017-08-20 18:00 W 260°
(220°–290°)
8 0–5 LFSB 201600Z 26008KT 220V290 CAVOK 23/08 Q1024 NOSIG